This is the latest recevied weather packets stored in our database for station/object KC9NPJ-13. If no packets are shown the sender has not sent any weather packets the latest 10 day(s).
| Time | Temp. | Humidity | Pressure | Rain* | Wind** | Luminosity | Snow |
|---|---|---|---|---|---|---|---|
| 1777879746 | 14.44° C | 80% | 1012.3 hPa | 0 mm | - | - | - |
| 1777879447 | 14.44° C | 80% | 1012.5 hPa | 0 mm | - | - | - |
| 1777879147 | 13.89° C | 79% | 1012.7 hPa | 0 mm | - | - | - |
| 1777878847 | 13.89° C | 78% | 1012.7 hPa | 0 mm | - | - | - |
| 1777878547 | 13.33° C | 78% | 1013.1 hPa | 0 mm | - | - | - |
| 1777878247 | 12.78° C | 82% | 1011.4 hPa | 0 mm | - | - | - |
| 1777877947 | 12.78° C | 80% | 1011.1 hPa | 0 mm | - | - | - |
| 1777877647 | 12.22° C | 79% | 1011 hPa | 0 mm | - | - | - |
| 1777877347 | 12.22° C | 81% | 1010.9 hPa | 0 mm | - | - | - |
| 1777877047 | 12.22° C | 82% | 1011 hPa | 0 mm | - | - | - |
| 1777876747 | 12.22° C | 80% | 1011 hPa | 0 mm | - | - | - |
| 1777876447 | 12.22° C | 79% | 1010.9 hPa | 0 mm | - | - | - |
| 1777876147 | 12.22° C | 77% | 1010.9 hPa | 0 mm | - | - | - |
| 1777875847 | 12.22° C | 76% | 1011 hPa | 0 mm | - | - | - |
| 1777875547 | 12.22° C | 77% | 1011 hPa | 0 mm | - | - | - |
| 1777875247 | 12.78° C | 78% | 1010.9 hPa | 0 mm | - | - | - |
| 1777874947 | 12.78° C | 75% | 1010.9 hPa | 0 mm | - | - | - |
| 1777874647 | 12.78° C | 76% | 1010.9 hPa | 0 mm | - | - | - |
| 1777874347 | 12.78° C | 75% | 1010.8 hPa | 0 mm | - | - | - |
| 1777874047 | 12.78° C | 74% | 1010.7 hPa | 0 mm | - | - | - |
| 1777873747 | 12.78° C | 75% | 1010.6 hPa | 0 mm | - | - | - |
| 1777873447 | 12.78° C | 75% | 1010.5 hPa | 0 mm | - | - | - |
| 1777873147 | 12.22° C | 74% | 1010.4 hPa | 0 mm | - | - | - |
| 1777872847 | 12.22° C | 75% | 1010.5 hPa | 0 mm | - | - | - |
| 1777872547 | 12.22° C | 75% | 1010.6 hPa | 0 mm | - | - | - |
* Rain latest hour (hover to see other rain measurements)
** Current wind speed in m/s (hover to see current wind gust speed)